sensor_id;sensor_type;location;lat;lon;timestamp;pressure;altitude;pressure_sealevel;temperature;humidity
56042;BME280;48756;41.374;2.066;2022-07-29T00:01:14;100814.97;;;27.03;77.13
56042;BME280;48756;41.374;2.066;2022-07-29T00:03:40;100815.41;;;26.97;77.07
56042;BME280;48756;41.374;2.066;2022-07-29T00:06:05;100811.50;;;26.90;77.74
56042;BME280;48756;41.374;2.066;2022-07-29T00:08:31;100812.09;;;26.82;77.42
56042;BME280;48756;41.374;2.066;2022-07-29T00:10:56;100807.91;;;26.43;78.97
56042;BME280;48756;41.374;2.066;2022-07-29T00:13:22;100794.53;;;26.19;80.95
56042;BME280;48756;41.374;2.066;2022-07-29T00:15:47;100784.03;;;26.29;80.56
56042;BME280;48756;41.374;2.066;2022-07-29T00:18:12;100786.59;;;26.31;81.29
56042;BME280;48756;41.374;2.066;2022-07-29T00:20:38;100784.16;;;26.28;80.22
56042;BME280;48756;41.374;2.066;2022-07-29T00:23:03;100789.22;;;26.43;80.50
56042;BME280;48756;41.374;2.066;2022-07-29T00:25:28;100793.28;;;26.49;80.29
56042;BME280;48756;41.374;2.066;2022-07-29T00:27:54;100789.75;;;26.48;80.55
56042;BME280;48756;41.374;2.066;2022-07-29T00:30:19;100790.97;;;26.55;79.14
56042;BME280;48756;41.374;2.066;2022-07-29T00:32:45;100789.16;;;26.56;79.85
56042;BME280;48756;41.374;2.066;2022-07-29T00:35:10;100798.75;;;26.59;78.91
56042;BME280;48756;41.374;2.066;2022-07-29T00:37:54;100795.84;;;26.62;78.45
56042;BME280;48756;41.374;2.066;2022-07-29T00:40:19;100797.56;;;26.63;78.84
56042;BME280;48756;41.374;2.066;2022-07-29T00:42:46;100788.81;;;26.37;80.65
56042;BME280;48756;41.374;2.066;2022-07-29T00:45:12;100783.88;;;26.43;79.75
56042;BME280;48756;41.374;2.066;2022-07-29T00:47:38;100786.97;;;26.13;81.54
56042;BME280;48756;41.374;2.066;2022-07-29T00:50:04;100782.88;;;26.20;81.08
56042;BME280;48756;41.374;2.066;2022-07-29T00:52:30;100781.78;;;25.99;82.20
56042;BME280;48756;41.374;2.066;2022-07-29T00:54:55;100786.09;;;25.89;83.43
56042;BME280;48756;41.374;2.066;2022-07-29T00:57:21;100777.97;;;25.90;83.19
56042;BME280;48756;41.374;2.066;2022-07-29T00:59:47;100777.97;;;25.90;82.53
56042;BME280;48756;41.374;2.066;2022-07-29T01:02:12;100779.50;;;25.82;84.32
56042;BME280;48756;41.374;2.066;2022-07-29T01:04:37;100765.94;;;25.85;84.07
56042;BME280;48756;41.374;2.066;2022-07-29T01:07:03;100764.75;;;25.89;83.90
56042;BME280;48756;41.374;2.066;2022-07-29T01:09:29;100770.97;;;26.01;82.87
56042;BME280;48756;41.374;2.066;2022-07-29T01:11:56;100768.19;;;26.02;82.84
56042;BME280;48756;41.374;2.066;2022-07-29T01:14:22;100770.22;;;26.11;81.42
56042;BME280;48756;41.374;2.066;2022-07-29T01:16:51;100765.00;;;26.10;82.33
56042;BME280;48756;41.374;2.066;2022-07-29T01:19:31;100765.34;;;26.05;82.57
56042;BME280;48756;41.374;2.066;2022-07-29T01:21:59;100758.19;;;26.06;83.28
56042;BME280;48756;41.374;2.066;2022-07-29T01:24:30;100755.44;;;26.18;82.08
56042;BME280;48756;41.374;2.066;2022-07-29T01:29:57;100747.53;;;26.41;80.48
56042;BME280;48756;41.374;2.066;2022-07-29T01:32:28;100742.31;;;26.39;80.85
56042;BME280;48756;41.374;2.066;2022-07-29T01:40:11;100721.38;;;26.33;81.36
56042;BME280;48756;41.374;2.066;2022-07-29T01:42:43;100717.56;;;26.24;81.85
56042;BME280;48756;41.374;2.066;2022-07-29T01:45:14;100719.59;;;26.10;83.29
56042;BME280;48756;41.374;2.066;2022-07-29T01:47:44;100708.06;;;26.09;83.88
56042;BME280;48756;41.374;2.066;2022-07-29T01:50:12;100713.78;;;26.16;82.99
56042;BME280;48756;41.374;2.066;2022-07-29T01:52:42;100712.75;;;26.30;81.82
56042;BME280;48756;41.374;2.066;2022-07-29T01:55:12;100710.75;;;26.44;81.13
56042;BME280;48756;41.374;2.066;2022-07-29T01:57:38;100715.41;;;26.53;81.22
56042;BME280;48756;41.374;2.066;2022-07-29T02:00:05;100708.97;;;26.56;80.61
56042;BME280;48756;41.374;2.066;2022-07-29T02:02:31;100715.88;;;26.47;79.83
56042;BME280;48756;41.374;2.066;2022-07-29T02:04:58;100713.66;;;26.41;80.00
56042;BME280;48756;41.374;2.066;2022-07-29T02:07:25;100714.91;;;26.24;81.12
56042;BME280;48756;41.374;2.066;2022-07-29T02:09:53;100714.88;;;26.13;81.14
56042;BME280;48756;41.374;2.066;2022-07-29T02:12:20;100716.84;;;26.22;81.39
56042;BME280;48756;41.374;2.066;2022-07-29T02:14:49;100708.44;;;26.16;81.48
56042;BME280;48756;41.374;2.066;2022-07-29T02:17:16;100712.81;;;26.17;82.31
56042;BME280;48756;41.374;2.066;2022-07-29T02:19:45;100714.41;;;26.19;81.88
56042;BME280;48756;41.374;2.066;2022-07-29T02:22:12;100710.41;;;26.25;80.78
56042;BME280;48756;41.374;2.066;2022-07-29T02:24:38;100715.09;;;26.34;80.61
56042;BME280;48756;41.374;2.066;2022-07-29T02:27:05;100713.44;;;26.20;80.92
56042;BME280;48756;41.374;2.066;2022-07-29T02:29:32;100711.06;;;26.05;81.97
56042;BME280;48756;41.374;2.066;2022-07-29T02:31:59;100713.50;;;26.08;81.47
56042;BME280;48756;41.374;2.066;2022-07-29T02:34:26;100710.03;;;25.94;81.60
56042;BME280;48756;41.374;2.066;2022-07-29T02:36:52;100716.91;;;25.86;82.20
56042;BME280;48756;41.374;2.066;2022-07-29T02:39:19;100714.91;;;25.77;82.84
56042;BME280;48756;41.374;2.066;2022-07-29T02:41:48;100719.28;;;25.78;82.73
56042;BME280;48756;41.374;2.066;2022-07-29T02:44:18;100717.47;;;25.78;82.76
56042;BME280;48756;41.374;2.066;2022-07-29T02:49:35;100719.38;;;25.76;82.55
56042;BME280;48756;41.374;2.066;2022-07-29T02:52:03;100720.97;;;25.79;83.00
56042;BME280;48756;41.374;2.066;2022-07-29T02:54:31;100723.03;;;25.75;82.57
56042;BME280;48756;41.374;2.066;2022-07-29T02:56:59;100722.94;;;25.64;83.33
56042;BME280;48756;41.374;2.066;2022-07-29T02:59:26;100722.53;;;25.57;83.42
56042;BME280;48756;41.374;2.066;2022-07-29T03:01:52;100729.59;;;25.46;84.00
56042;BME280;48756;41.374;2.066;2022-07-29T03:04:19;100722.72;;;25.54;83.78
56042;BME280;48756;41.374;2.066;2022-07-29T03:06:45;100726.44;;;25.64;83.42
56042;BME280;48756;41.374;2.066;2022-07-29T03:09:11;100728.69;;;25.71;82.63
56042;BME280;48756;41.374;2.066;2022-07-29T03:11:37;100731.13;;;25.37;84.97
56042;BME280;48756;41.374;2.066;2022-07-29T03:14:04;100726.25;;;25.55;83.89
56042;BME280;48756;41.374;2.066;2022-07-29T03:16:29;100734.25;;;25.55;83.55
56042;BME280;48756;41.374;2.066;2022-07-29T03:18:55;100731.78;;;25.64;83.80
56042;BME280;48756;41.374;2.066;2022-07-29T03:21:21;100740.56;;;25.54;84.12
56042;BME280;48756;41.374;2.066;2022-07-29T03:23:46;100731.75;;;25.28;84.61
56042;BME280;48756;41.374;2.066;2022-07-29T03:26:12;100740.16;;;24.96;86.51
56042;BME280;48756;41.374;2.066;2022-07-29T03:28:37;100745.13;;;24.63;88.84
56042;BME280;48756;41.374;2.066;2022-07-29T03:31:03;100736.63;;;24.70;88.24
56042;BME280;48756;41.374;2.066;2022-07-29T03:33:28;100747.06;;;24.73;88.07
56042;BME280;48756;41.374;2.066;2022-07-29T03:35:55;100741.81;;;24.59;89.54
56042;BME280;48756;41.374;2.066;2022-07-29T03:38:21;100737.69;;;24.68;88.95
56042;BME280;48756;41.374;2.066;2022-07-29T03:40:51;100731.75;;;24.90;87.91
56042;BME280;48756;41.374;2.066;2022-07-29T03:43:17;100735.59;;;25.11;86.28
56042;BME280;48756;41.374;2.066;2022-07-29T03:45:44;100726.19;;;25.31;84.32
56042;BME280;48756;41.374;2.066;2022-07-29T03:48:12;100726.63;;;25.25;84.96
56042;BME280;48756;41.374;2.066;2022-07-29T03:50:39;100734.19;;;25.31;84.34
56042;BME280;48756;41.374;2.066;2022-07-29T03:53:04;100722.38;;;25.35;84.07
56042;BME280;48756;41.374;2.066;2022-07-29T03:55:32;100723.84;;;25.26;83.57
56042;BME280;48756;41.374;2.066;2022-07-29T03:58:01;100720.78;;;25.20;84.63
56042;BME280;48756;41.374;2.066;2022-07-29T04:00:27;100713.28;;;25.25;83.99
56042;BME280;48756;41.374;2.066;2022-07-29T04:02:52;100702.72;;;25.36;83.20
56042;BME280;48756;41.374;2.066;2022-07-29T04:05:18;100701.78;;;25.24;83.30
56042;BME280;48756;41.374;2.066;2022-07-29T04:07:44;100699.34;;;25.09;83.90
56042;BME280;48756;41.374;2.066;2022-07-29T04:10:09;100715.53;;;24.80;85.18
56042;BME280;48756;41.374;2.066;2022-07-29T04:12:35;100717.47;;;24.91;85.07
56042;BME280;48756;41.374;2.066;2022-07-29T04:15:01;100711.91;;;24.81;86.22
56042;BME280;48756;41.374;2.066;2022-07-29T04:17:26;100711.69;;;24.84;85.59
56042;BME280;48756;41.374;2.066;2022-07-29T04:19:52;100714.69;;;24.92;85.36
56042;BME280;48756;41.374;2.066;2022-07-29T04:22:17;100720.88;;;25.06;84.25
56042;BME280;48756;41.374;2.066;2022-07-29T04:24:43;100720.47;;;24.99;85.42
56042;BME280;48756;41.374;2.066;2022-07-29T04:27:08;100725.97;;;24.83;86.05
56042;BME280;48756;41.374;2.066;2022-07-29T04:29:34;100729.94;;;24.90;85.20
56042;BME280;48756;41.374;2.066;2022-07-29T04:31:59;100730.13;;;24.87;85.28
56042;BME280;48756;41.374;2.066;2022-07-29T04:34:24;100737.72;;;24.93;85.29
56042;BME280;48756;41.374;2.066;2022-07-29T04:36:50;100740.38;;;24.93;84.69
56042;BME280;48756;41.374;2.066;2022-07-29T04:39:15;100745.06;;;24.90;84.77
56042;BME280;48756;41.374;2.066;2022-07-29T04:41:43;100742.38;;;24.77;85.59
56042;BME280;48756;41.374;2.066;2022-07-29T04:44:08;100746.13;;;24.87;85.69
56042;BME280;48756;41.374;2.066;2022-07-29T04:46:34;100738.06;;;25.14;83.57
56042;BME280;48756;41.374;2.066;2022-07-29T04:49:00;100740.28;;;25.20;83.44
56042;BME280;48756;41.374;2.066;2022-07-29T04:51:25;100749.03;;;25.35;82.59
56042;BME280;48756;41.374;2.066;2022-07-29T04:53:51;100750.81;;;25.34;82.61
56042;BME280;48756;41.374;2.066;2022-07-29T04:56:16;100756.38;;;25.31;81.78
56042;BME280;48756;41.374;2.066;2022-07-29T04:58:42;100759.78;;;25.33;83.02
56042;BME280;48756;41.374;2.066;2022-07-29T05:01:07;100768.22;;;25.27;82.47
56042;BME280;48756;41.374;2.066;2022-07-29T05:03:32;100765.47;;;25.29;83.50
56042;BME280;48756;41.374;2.066;2022-07-29T05:05:58;100763.88;;;25.39;82.71
56042;BME280;48756;41.374;2.066;2022-07-29T05:08:23;100773.31;;;24.92;84.50
56042;BME280;48756;41.374;2.066;2022-07-29T05:10:49;100778.22;;;24.98;84.91
56042;BME280;48756;41.374;2.066;2022-07-29T05:13:14;100783.88;;;24.94;85.41
56042;BME280;48756;41.374;2.066;2022-07-29T05:15:41;100793.63;;;25.08;84.05
56042;BME280;48756;41.374;2.066;2022-07-29T05:18:06;100801.44;;;24.71;85.95
56042;BME280;48756;41.374;2.066;2022-07-29T05:20:31;100813.91;;;24.83;85.51
56042;BME280;48756;41.374;2.066;2022-07-29T05:22:58;100811.25;;;24.83;86.25
56042;BME280;48756;41.374;2.066;2022-07-29T05:25:24;100806.34;;;25.17;84.42
56042;BME280;48756;41.374;2.066;2022-07-29T05:27:50;100808.34;;;25.39;82.39
56042;BME280;48756;41.374;2.066;2022-07-29T05:30:15;100803.41;;;24.94;84.65
56042;BME280;48756;41.374;2.066;2022-07-29T05:32:41;100807.03;;;24.93;84.95
56042;BME280;48756;41.374;2.066;2022-07-29T05:35:06;100812.72;;;25.01;85.48
56042;BME280;48756;41.374;2.066;2022-07-29T05:37:32;100808.94;;;24.91;85.23
56042;BME280;48756;41.374;2.066;2022-07-29T05:39:58;100810.91;;;25.02;85.38
56042;BME280;48756;41.374;2.066;2022-07-29T05:42:24;100813.69;;;25.26;83.53
56042;BME280;48756;41.374;2.066;2022-07-29T05:44:49;100806.41;;;25.53;81.31
56042;BME280;48756;41.374;2.066;2022-07-29T05:47:15;100807.91;;;25.70;81.45
56042;BME280;48756;41.374;2.066;2022-07-29T05:49:41;100810.25;;;25.87;79.69
56042;BME280;48756;41.374;2.066;2022-07-29T05:52:07;100816.03;;;25.69;80.32
56042;BME280;48756;41.374;2.066;2022-07-29T05:54:32;100822.63;;;25.63;80.27
56042;BME280;48756;41.374;2.066;2022-07-29T05:56:57;100815.47;;;25.63;81.67
56042;BME280;48756;41.374;2.066;2022-07-29T05:59:23;100824.34;;;25.64;81.04
56042;BME280;48756;41.374;2.066;2022-07-29T06:01:48;100829.69;;;25.51;82.34
56042;BME280;48756;41.374;2.066;2022-07-29T06:04:14;100831.38;;;25.52;82.04
56042;BME280;48756;41.374;2.066;2022-07-29T06:06:39;100829.03;;;25.86;80.80
56042;BME280;48756;41.374;2.066;2022-07-29T06:09:04;100827.88;;;25.64;81.30
56042;BME280;48756;41.374;2.066;2022-07-29T06:11:30;100824.34;;;25.77;80.90
56042;BME280;48756;41.374;2.066;2022-07-29T06:13:55;100825.19;;;25.90;80.37
56042;BME280;48756;41.374;2.066;2022-07-29T06:16:20;100824.88;;;25.82;81.23
56042;BME280;48756;41.374;2.066;2022-07-29T06:18:46;100829.31;;;25.94;80.43
56042;BME280;48756;41.374;2.066;2022-07-29T06:21:11;100821.31;;;25.94;80.89
56042;BME280;48756;41.374;2.066;2022-07-29T06:23:37;100824.72;;;26.09;79.29
56042;BME280;48756;41.374;2.066;2022-07-29T06:26:03;100824.41;;;26.37;78.88
56042;BME280;48756;41.374;2.066;2022-07-29T06:28:29;100819.28;;;26.34;78.95
56042;BME280;48756;41.374;2.066;2022-07-29T06:30:54;100822.75;;;26.47;77.44
56042;BME280;48756;41.374;2.066;2022-07-29T06:33:19;100821.66;;;26.74;76.94
56042;BME280;48756;41.374;2.066;2022-07-29T06:35:45;100823.03;;;26.79;76.82
56042;BME280;48756;41.374;2.066;2022-07-29T06:38:12;100827.78;;;26.87;75.93
56042;BME280;48756;41.374;2.066;2022-07-29T06:40:40;100829.09;;;26.81;75.93
56042;BME280;48756;41.374;2.066;2022-07-29T06:43:25;100831.91;;;26.91;75.72
56042;BME280;48756;41.374;2.066;2022-07-29T06:45:50;100834.69;;;27.13;74.85
56042;BME280;48756;41.374;2.066;2022-07-29T06:48:15;100835.78;;;27.11;74.78
56042;BME280;48756;41.374;2.066;2022-07-29T06:50:41;100840.81;;;27.27;74.23
56042;BME280;48756;41.374;2.066;2022-07-29T06:53:06;100844.16;;;27.64;73.05
56042;BME280;48756;41.374;2.066;2022-07-29T06:55:31;100840.09;;;28.03;71.72
56042;BME280;48756;41.374;2.066;2022-07-29T06:57:57;100837.56;;;28.01;71.26
56042;BME280;48756;41.374;2.066;2022-07-29T07:00:22;100837.75;;;28.43;69.06
56042;BME280;48756;41.374;2.066;2022-07-29T07:02:48;100838.16;;;28.05;70.38
56042;BME280;48756;41.374;2.066;2022-07-29T07:05:13;100842.66;;;28.04;70.44
56042;BME280;48756;41.374;2.066;2022-07-29T07:07:39;100838.56;;;27.89;70.92
56042;BME280;48756;41.374;2.066;2022-07-29T07:10:04;100843.41;;;28.06;70.78
56042;BME280;48756;41.374;2.066;2022-07-29T07:12:30;100839.63;;;28.31;70.24
56042;BME280;48756;41.374;2.066;2022-07-29T07:14:55;100834.59;;;28.38;69.52
56042;BME280;48756;41.374;2.066;2022-07-29T07:17:21;100833.53;;;28.29;69.76
56042;BME280;48756;41.374;2.066;2022-07-29T07:19:46;100835.09;;;28.32;70.01
56042;BME280;48756;41.374;2.066;2022-07-29T07:22:12;100834.72;;;28.25;69.50
56042;BME280;48756;41.374;2.066;2022-07-29T07:24:37;100842.06;;;27.79;71.28
56042;BME280;48756;41.374;2.066;2022-07-29T07:27:02;100845.88;;;27.87;71.05
56042;BME280;48756;41.374;2.066;2022-07-29T07:29:28;100852.53;;;27.82;71.29
56042;BME280;48756;41.374;2.066;2022-07-29T07:31:53;100848.16;;;27.92;71.41
56042;BME280;48756;41.374;2.066;2022-07-29T07:34:20;100852.06;;;27.88;71.16
56042;BME280;48756;41.374;2.066;2022-07-29T07:36:45;100843.91;;;27.78;71.52
56042;BME280;48756;41.374;2.066;2022-07-29T07:39:10;100848.19;;;28.57;68.62
56042;BME280;48756;41.374;2.066;2022-07-29T07:41:36;100857.56;;;28.84;67.80
56042;BME280;48756;41.374;2.066;2022-07-29T07:44:01;100853.63;;;28.67;68.18
56042;BME280;48756;41.374;2.066;2022-07-29T07:46:27;100856.16;;;28.68;67.43
56042;BME280;48756;41.374;2.066;2022-07-29T07:48:52;100850.72;;;28.59;68.34
56042;BME280;48756;41.374;2.066;2022-07-29T07:51:18;100855.56;;;28.65;67.63
56042;BME280;48756;41.374;2.066;2022-07-29T07:53:43;100853.63;;;28.67;68.90
56042;BME280;48756;41.374;2.066;2022-07-29T07:56:15;100859.19;;;29.07;66.59
56042;BME280;48756;41.374;2.066;2022-07-29T07:58:40;100863.56;;;28.87;67.04
56042;BME280;48756;41.374;2.066;2022-07-29T08:01:05;100855.78;;;28.19;69.36
56042;BME280;48756;41.374;2.066;2022-07-29T08:03:31;100859.44;;;28.29;69.12
56042;BME280;48756;41.374;2.066;2022-07-29T08:05:57;100866.50;;;28.41;68.86
56042;BME280;48756;41.374;2.066;2022-07-29T08:08:23;100858.56;;;28.83;67.73
56042;BME280;48756;41.374;2.066;2022-07-29T08:10:48;100860.97;;;28.97;67.24
56042;BME280;48756;41.374;2.066;2022-07-29T08:13:18;100858.78;;;28.91;67.35
56042;BME280;48756;41.374;2.066;2022-07-29T08:15:43;100857.47;;;28.85;66.71
56042;BME280;48756;41.374;2.066;2022-07-29T08:18:10;100855.25;;;28.90;66.68
56042;BME280;48756;41.374;2.066;2022-07-29T08:20:36;100851.16;;;28.75;67.45
56042;BME280;48756;41.374;2.066;2022-07-29T08:23:03;100861.19;;;29.36;65.94
56042;BME280;48756;41.374;2.066;2022-07-29T08:25:29;100861.91;;;29.38;64.83
56042;BME280;48756;41.374;2.066;2022-07-29T08:27:55;100870.53;;;29.52;64.23
56042;BME280;48756;41.374;2.066;2022-07-29T08:30:21;100878.38;;;29.23;65.62
56042;BME280;48756;41.374;2.066;2022-07-29T08:32:47;100873.50;;;29.17;65.65
56042;BME280;48756;41.374;2.066;2022-07-29T08:35:13;100872.38;;;29.41;64.28
56042;BME280;48756;41.374;2.066;2022-07-29T08:37:38;100882.25;;;29.51;63.91
56042;BME280;48756;41.374;2.066;2022-07-29T08:40:03;100881.56;;;29.38;64.17
56042;BME280;48756;41.374;2.066;2022-07-29T08:42:35;100879.25;;;29.45;64.29
56042;BME280;48756;41.374;2.066;2022-07-29T08:45:01;100873.78;;;29.56;63.16
56042;BME280;48756;41.374;2.066;2022-07-29T08:47:27;100880.16;;;29.55;63.07
56042;BME280;48756;41.374;2.066;2022-07-29T08:49:52;100876.88;;;29.82;61.90
56042;BME280;48756;41.374;2.066;2022-07-29T08:52:18;100874.59;;;30.08;60.71
56042;BME280;48756;41.374;2.066;2022-07-29T08:54:44;100869.63;;;30.03;60.32
56042;BME280;48756;41.374;2.066;2022-07-29T08:57:14;100866.91;;;30.53;59.03
56042;BME280;48756;41.374;2.066;2022-07-29T08:59:40;100879.00;;;31.17;56.91
56042;BME280;48756;41.374;2.066;2022-07-29T09:02:10;100876.69;;;31.41;56.40
56042;BME280;48756;41.374;2.066;2022-07-29T09:04:38;100879.19;;;31.62;55.54
56042;BME280;48756;41.374;2.066;2022-07-29T09:07:04;100880.03;;;32.37;54.13
56042;BME280;48756;41.374;2.066;2022-07-29T09:09:30;100879.19;;;32.72;53.20
56042;BME280;48756;41.374;2.066;2022-07-29T09:11:58;100874.53;;;32.92;52.55
56042;BME280;48756;41.374;2.066;2022-07-29T09:14:24;100873.25;;;32.68;52.70
56042;BME280;48756;41.374;2.066;2022-07-29T09:16:55;100874.06;;;32.06;54.03
56042;BME280;48756;41.374;2.066;2022-07-29T09:21:46;100880.91;;;32.00;55.12
56042;BME280;48756;41.374;2.066;2022-07-29T09:25:06;100888.13;;;31.72;54.92
56042;BME280;48756;41.374;2.066;2022-07-29T09:27:25;100885.19;;;31.46;56.54
56042;BME280;48756;41.374;2.066;2022-07-29T09:32:25;100894.00;;;31.00;57.49
56042;BME280;48756;41.374;2.066;2022-07-29T09:34:57;100890.47;;;30.80;58.36
56042;BME280;48756;41.374;2.066;2022-07-29T09:37:36;100896.34;;;30.55;59.21
56042;BME280;48756;41.374;2.066;2022-07-29T09:40:10;100897.41;;;30.73;58.92
56042;BME280;48756;41.374;2.066;2022-07-29T09:42:36;100896.91;;;30.48;58.01
56042;BME280;48756;41.374;2.066;2022-07-29T09:45:02;100898.69;;;30.19;58.85
56042;BME280;48756;41.374;2.066;2022-07-29T09:47:39;100899.88;;;30.45;58.50
56042;BME280;48756;41.374;2.066;2022-07-29T09:50:05;100902.06;;;30.71;57.64
56042;BME280;48756;41.374;2.066;2022-07-29T09:52:31;100896.13;;;30.77;57.43
56042;BME280;48756;41.374;2.066;2022-07-29T09:55:09;100897.19;;;30.45;57.48
56042;BME280;48756;41.374;2.066;2022-07-29T09:57:35;100898.94;;;30.56;57.84
56042;BME280;48756;41.374;2.066;2022-07-29T10:00:03;100891.03;;;30.74;57.90
56042;BME280;48756;41.374;2.066;2022-07-29T10:02:31;100883.09;;;30.63;56.87
56042;BME280;48756;41.374;2.066;2022-07-29T10:04:56;100884.41;;;30.78;56.40
56042;BME280;48756;41.374;2.066;2022-07-29T10:07:22;100883.69;;;30.86;55.91
56042;BME280;48756;41.374;2.066;2022-07-29T10:10:05;100882.63;;;30.48;56.61
56042;BME280;48756;41.374;2.066;2022-07-29T10:12:31;100885.25;;;30.78;56.00
56042;BME280;48756;41.374;2.066;2022-07-29T10:14:57;100887.59;;;31.96;52.10
56042;BME280;48756;41.374;2.066;2022-07-29T10:17:22;100883.69;;;32.63;50.27
56042;BME280;48756;41.374;2.066;2022-07-29T10:19:48;100880.47;;;33.21;49.86
56042;BME280;48756;41.374;2.066;2022-07-29T10:22:13;100880.88;;;32.82;50.45
56042;BME280;48756;41.374;2.066;2022-07-29T10:24:39;100887.06;;;33.18;50.89
56042;BME280;48756;41.374;2.066;2022-07-29T10:27:05;100885.53;;;33.34;49.01
56042;BME280;48756;41.374;2.066;2022-07-29T10:29:31;100886.09;;;33.97;48.05
56042;BME280;48756;41.374;2.066;2022-07-29T10:32:17;100874.97;;;34.17;48.47
56042;BME280;48756;41.374;2.066;2022-07-29T10:40:27;100876.31;;;34.63;45.86
56042;BME280;48756;41.374;2.066;2022-07-29T10:43:16;100864.78;;;34.53;45.92
56042;BME280;48756;41.374;2.066;2022-07-29T10:45:43;100873.50;;;34.89;45.42
56042;BME280;48756;41.374;2.066;2022-07-29T10:48:09;100875.47;;;35.52;45.41
56042;BME280;48756;41.374;2.066;2022-07-29T10:53:22;100878.72;;;35.39;45.55
56042;BME280;48756;41.374;2.066;2022-07-29T10:55:48;100883.81;;;35.34;45.67
56042;BME280;48756;41.374;2.066;2022-07-29T11:00:44;100891.44;;;35.39;44.41
56042;BME280;48756;41.374;2.066;2022-07-29T11:03:28;100893.47;;;35.12;45.40
56042;BME280;48756;41.374;2.066;2022-07-29T11:05:55;100895.63;;;34.18;47.64
56042;BME280;48756;41.374;2.066;2022-07-29T11:08:22;100895.63;;;34.18;47.09
56042;BME280;48756;41.374;2.066;2022-07-29T11:10:51;100894.22;;;34.56;47.66
56042;BME280;48756;41.374;2.066;2022-07-29T11:16:01;100895.56;;;34.52;48.47
56042;BME280;48756;41.374;2.066;2022-07-29T11:18:27;100887.31;;;34.78;46.85
56042;BME280;48756;41.374;2.066;2022-07-29T11:20:52;100888.50;;;34.83;46.96
56042;BME280;48756;41.374;2.066;2022-07-29T11:23:25;100893.28;;;35.22;46.93
56042;BME280;48756;41.374;2.066;2022-07-29T11:29:13;100916.84;;;34.04;50.32
56042;BME280;48756;41.374;2.066;2022-07-29T11:31:42;100909.88;;;33.42;52.58
56042;BME280;48756;41.374;2.066;2022-07-29T11:39:27;100899.53;;;34.31;50.30
56042;BME280;48756;41.374;2.066;2022-07-29T11:41:52;100908.75;;;33.78;52.26
56042;BME280;48756;41.374;2.066;2022-07-29T11:44:18;100915.00;;;33.09;54.15
56042;BME280;48756;41.374;2.066;2022-07-29T11:47:04;100931.88;;;33.73;53.67
56042;BME280;48756;41.374;2.066;2022-07-29T11:49:29;100923.72;;;32.85;55.94
56042;BME280;48756;41.374;2.066;2022-07-29T11:51:56;100926.06;;;32.71;57.63
56042;BME280;48756;41.374;2.066;2022-07-29T11:54:26;100921.31;;;33.00;56.10
56042;BME280;48756;41.374;2.066;2022-07-29T11:56:54;100918.66;;;33.44;55.29
56042;BME280;48756;41.374;2.066;2022-07-29T11:59:20;100917.47;;;33.90;53.38
56042;BME280;48756;41.374;2.066;2022-07-29T12:01:55;100919.47;;;33.36;53.94
56042;BME280;48756;41.374;2.066;2022-07-29T12:04:21;100913.81;;;32.31;56.16
56042;BME280;48756;41.374;2.066;2022-07-29T12:06:54;100911.50;;;32.09;57.68
56042;BME280;48756;41.374;2.066;2022-07-29T12:09:20;100920.59;;;32.63;56.17
56042;BME280;48756;41.374;2.066;2022-07-29T12:11:46;100918.78;;;32.81;56.08
56042;BME280;48756;41.374;2.066;2022-07-29T12:14:28;100926.66;;;31.63;59.86
56042;BME280;48756;41.374;2.066;2022-07-29T12:16:54;100915.50;;;31.58;59.86
56042;BME280;48756;41.374;2.066;2022-07-29T12:19:19;100922.34;;;31.33;62.53
56042;BME280;48756;41.374;2.066;2022-07-29T12:24:10;100931.88;;;31.93;60.48
56042;BME280;48756;41.374;2.066;2022-07-29T12:26:35;100940.34;;;31.03;64.44
56042;BME280;48756;41.374;2.066;2022-07-29T12:29:01;100939.50;;;31.32;63.38
56042;BME280;48756;41.374;2.066;2022-07-29T12:31:27;100930.81;;;31.57;63.12
56042;BME280;48756;41.374;2.066;2022-07-29T12:33:53;100923.25;;;31.80;63.73
56042;BME280;48756;41.374;2.066;2022-07-29T12:36:18;100943.44;;;31.08;66.28
56042;BME280;48756;41.374;2.066;2022-07-29T12:38:44;100935.53;;;31.26;63.85
56042;BME280;48756;41.374;2.066;2022-07-29T12:41:09;100943.91;;;31.23;62.21
56042;BME280;48756;41.374;2.066;2022-07-29T12:43:35;100947.44;;;31.99;59.25
56042;BME280;48756;41.374;2.066;2022-07-29T12:46:11;100944.53;;;32.20;58.74
56042;BME280;48756;41.374;2.066;2022-07-29T12:48:37;100948.34;;;32.27;57.92
56042;BME280;48756;41.374;2.066;2022-07-29T12:51:04;100936.69;;;32.37;58.19
56042;BME280;48756;41.374;2.066;2022-07-29T12:53:29;100942.53;;;31.85;59.05
56042;BME280;48756;41.374;2.066;2022-07-29T12:55:55;100940.56;;;31.78;59.76
56042;BME280;48756;41.374;2.066;2022-07-29T13:03:41;100953.75;;;32.27;55.65
56042;BME280;48756;41.374;2.066;2022-07-29T13:06:07;100940.97;;;31.83;56.44
56042;BME280;48756;41.374;2.066;2022-07-29T13:08:32;100948.69;;;31.39;57.32
56042;BME280;48756;41.374;2.066;2022-07-29T13:10:57;100952.09;;;32.07;55.90
56042;BME280;48756;41.374;2.066;2022-07-29T13:13:23;100953.38;;;31.08;58.29
56042;BME280;48756;41.374;2.066;2022-07-29T13:15:53;100974.50;;;29.92;62.20
56042;BME280;48756;41.374;2.066;2022-07-29T13:18:30;100975.28;;;30.34;61.65
56042;BME280;48756;41.374;2.066;2022-07-29T13:20:56;100948.34;;;31.81;56.13
56042;BME280;48756;41.374;2.066;2022-07-29T13:23:22;100948.44;;;31.98;55.12
56042;BME280;48756;41.374;2.066;2022-07-29T13:25:47;100956.03;;;30.79;57.69
56042;BME280;48756;41.374;2.066;2022-07-29T13:28:13;100970.25;;;30.10;60.04
56042;BME280;48756;41.374;2.066;2022-07-29T13:30:41;100955.78;;;31.01;57.17
56042;BME280;48756;41.374;2.066;2022-07-29T13:33:06;100947.53;;;30.93;57.38
56042;BME280;48756;41.374;2.066;2022-07-29T13:35:32;100953.75;;;30.65;56.98